Time;durP1;ratioP1;P1;durP2;ratioP2;P2;SDS_P1;SDS_P2;PMS_P1;PMS_P2;Temp;Humidity;BMP_temperature;BMP_pressure;BME280_temperature;BME280_humidity;BME280_pressure;Samples;Min_cycle;Max_cycle;Signal;HPM_P1;HPM_P2
2023/05/19 00:01:42;;;;;;;256.98;11.13;;;;;;;;;;4953097;28;20034;-55
2023/05/19 00:04:08;;;;;;;155.48;7.25;;;;;;;;;;4937424;28;20034;-51
2023/05/19 00:06:35;;;;;;;259.58;10.90;;;;;;;;;;4952588;28;20047;-52
2023/05/19 00:09:03;;;;;;;156.43;6.95;;;;;;;;;;4954551;28;20146;-53
2023/05/19 00:11:29;;;;;;;131.80;6.38;;;;;;;;;;4957883;28;20050;-52
2023/05/19 00:13:57;;;;;;;123.88;5.90;;;;;;;;;;4955842;28;20019;-54
2023/05/19 00:16:23;;;;;;;129.02;6.38;;;;;;;;;;4956844;28;20045;-54
2023/05/19 00:18:48;;;;;;;227.15;10.25;;;;;;;;;;4956706;28;20019;-54
2023/05/19 00:21:14;;;;;;;112.68;5.43;;;;;;;;;;4956482;28;20105;-56
2023/05/19 00:23:39;;;;;;;234.07;10.32;;;;;;;;;;4955276;28;20087;-52
2023/05/19 00:26:04;;;;;;;118.80;5.82;;;;;;;;;;4956547;28;20045;-54
2023/05/19 00:28:30;;;;;;;93.93;4.88;;;;;;;;;;4958048;28;20357;-54
2023/05/19 00:30:55;;;;;;;150.53;6.80;;;;;;;;;;4955563;28;20468;-55
2023/05/19 00:33:20;;;;;;;120.07;5.80;;;;;;;;;;4956551;28;20860;-53
2023/05/19 00:35:46;;;;;;;215.10;9.70;;;;;;;;;;4955003;28;20034;-53
2023/05/19 00:38:11;;;;;;;130.17;6.20;;;;;;;;;;4938685;28;20025;-53
2023/05/19 00:40:36;;;;;;;180.33;8.37;;;;;;;;;;4953586;28;20273;-53
2023/05/19 00:43:01;;;;;;;117.07;6.00;;;;;;;;;;4940220;28;20261;-55
2023/05/19 00:45:27;;;;;;;128.98;6.00;;;;;;;;;;4956191;28;20830;-53
2023/05/19 00:47:52;;;;;;;133.70;6.43;;;;;;;;;;4955908;28;20019;-53
2023/05/19 00:50:18;;;;;;;107.63;5.77;;;;;;;;;;4955468;28;20657;-52
2023/05/19 00:52:43;;;;;;;178.02;7.78;;;;;;;;;;4953864;28;20291;-53
2023/05/19 00:55:08;;;;;;;122.65;5.80;;;;;;;;;;4955026;28;20023;-53
2023/05/19 00:57:34;;;;;;;157.73;7.47;;;;;;;;;;4954850;28;20042;-54
2023/05/19 00:59:59;;;;;;;112.68;5.65;;;;;;;;;;4956255;28;20034;-53
2023/05/19 01:02:25;;;;;;;128.98;6.13;;;;;;;;;;4956061;28;20038;-54
2023/05/19 01:04:50;;;;;;;238.38;10.65;;;;;;;;;;4955262;28;20027;-52
2023/05/19 01:07:15;;;;;;;118.03;5.60;;;;;;;;;;4956297;28;20039;-52
2023/05/19 01:09:41;;;;;;;212.70;9.73;;;;;;;;;;4955773;28;20197;-51
2023/05/19 01:12:06;;;;;;;139.48;6.70;;;;;;;;;;4956921;28;20426;-51
2023/05/19 01:14:31;;;;;;;114.00;5.45;;;;;;;;;;4956380;28;20388;-53
2023/05/19 01:17:04;;;;;;;132.18;6.47;;;;;;;;;;4953677;28;20408;-54
2023/05/19 01:19:45;;;;;;;121.50;5.90;;;;;;;;;;4957162;28;20030;-52
2023/05/19 01:22:21;;;;;;;148.10;6.57;;;;;;;;;;4956055;28;20031;-54
2023/05/19 01:25:22;;;;;;;220.75;9.35;;;;;;;;;;4955232;28;20046;-53
2023/05/19 01:27:53;;;;;;;216.02;9.85;;;;;;;;;;4877107;29;20043;-53
2023/05/19 01:30:24;;;;;;;145.63;6.78;;;;;;;;;;4939093;28;20066;-51
2023/05/19 01:32:52;;;;;;;228.47;10.17;;;;;;;;;;4955538;28;20372;-53
2023/05/19 01:35:18;;;;;;;112.10;5.97;;;;;;;;;;4955748;28;20258;-52
2023/05/19 01:37:44;;;;;;;235.48;10.43;;;;;;;;;;4954295;28;20027;-52
2023/05/19 01:40:09;;;;;;;125.55;6.20;;;;;;;;;;4956768;28;20027;-54
2023/05/19 01:42:38;;;;;;;144.95;6.82;;;;;;;;;;4957277;28;20119;-52
2023/05/19 01:45:05;;;;;;;119.18;6.00;;;;;;;;;;4955749;28;20117;-53
2023/05/19 01:47:32;;;;;;;124.85;6.35;;;;;;;;;;4956812;28;20047;-53
2023/05/19 01:49:57;;;;;;;116.65;5.85;;;;;;;;;;4955640;28;20869;-52
2023/05/19 01:52:22;;;;;;;116.00;5.67;;;;;;;;;;4956154;28;20446;-52
2023/05/19 01:54:48;;;;;;;219.73;9.47;;;;;;;;;;4954215;28;20760;-53
2023/05/19 01:57:23;;;;;;;111.80;5.57;;;;;;;;;;4956204;28;20911;-54
2023/05/19 01:59:57;;;;;;;229.48;10.48;;;;;;;;;;4954442;28;20263;-54
2023/05/19 02:02:36;;;;;;;113.82;5.95;;;;;;;;;;4954903;28;20023;-54
2023/05/19 02:05:20;;;;;;;166.88;7.28;;;;;;;;;;4955020;28;20037;-55
2023/05/19 02:07:51;;;;;;;217.95;9.48;;;;;;;;;;4953602;28;20136;-52
2023/05/19 02:10:26;;;;;;;144.32;6.60;;;;;;;;;;4955290;28;20692;-55
2023/05/19 02:12:52;;;;;;;194.20;8.85;;;;;;;;;;4952903;28;20095;-51
2023/05/19 02:15:23;;;;;;;135.38;6.53;;;;;;;;;;4952657;28;20516;-52
2023/05/19 02:17:50;;;;;;;219.73;10.02;;;;;;;;;;4954411;28;20030;-53
2023/05/19 02:20:16;;;;;;;101.22;5.43;;;;;;;;;;4955422;28;20117;-54
2023/05/19 02:22:41;;;;;;;161.63;7.60;;;;;;;;;;4954792;28;20635;-54
2023/05/19 02:25:07;;;;;;;111.03;5.68;;;;;;;;;;4956265;28;20030;-54
2023/05/19 02:27:36;;;;;;;154.23;6.80;;;;;;;;;;4955375;28;20046;-53
2023/05/19 02:30:05;;;;;;;121.97;5.75;;;;;;;;;;4955041;28;20019;-55
2023/05/19 02:32:30;;;;;;;117.15;5.90;;;;;;;;;;4957436;28;20787;-53
2023/05/19 02:34:56;;;;;;;193.93;8.73;;;;;;;;;;4956952;28;20952;-54
2023/05/19 02:37:24;;;;;;;104.30;5.75;;;;;;;;;;4958640;28;20684;-54
2023/05/19 02:39:49;;;;;;;231.40;10.45;;;;;;;;;;4956664;28;20031;-55
2023/05/19 02:42:17;;;;;;;94.20;5.20;;;;;;;;;;4957896;28;20041;-54
2023/05/19 02:44:42;;;;;;;147.18;7.35;;;;;;;;;;4958207;28;20054;-54
2023/05/19 02:47:07;;;;;;;125.60;6.13;;;;;;;;;;4958138;28;20544;-53
2023/05/19 02:49:34;;;;;;;107.07;5.43;;;;;;;;;;4958323;28;20802;-54
2023/05/19 02:52:00;;;;;;;140.98;6.82;;;;;;;;;;4955277;28;20043;-50
2023/05/19 02:54:25;;;;;;;123.15;6.10;;;;;;;;;;4958762;28;20026;-52
2023/05/19 02:56:51;;;;;;;204.73;9.03;;;;;;;;;;4957543;28;20039;-53
2023/05/19 02:59:16;;;;;;;143.70;6.93;;;;;;;;;;4958656;28;20324;-53
2023/05/19 03:01:41;;;;;;;132.00;6.37;;;;;;;;;;4957348;28;20031;-51
2023/05/19 03:04:06;;;;;;;121.10;6.25;;;;;;;;;;4959212;28;20269;-52
2023/05/19 03:06:32;;;;;;;171.57;7.88;;;;;;;;;;4956602;28;20540;-52
2023/05/19 03:08:57;;;;;;;189.17;8.83;;;;;;;;;;4958293;28;20027;-53
2023/05/19 03:11:22;;;;;;;127.40;6.03;;;;;;;;;;4957202;28;20267;-53
2023/05/19 03:13:47;;;;;;;201.87;9.17;;;;;;;;;;4957195;28;20046;-54
2023/05/19 03:16:13;;;;;;;123.63;5.97;;;;;;;;;;4958780;28;20282;-52
2023/05/19 03:18:40;;;;;;;128.38;6.28;;;;;;;;;;4957337;28;20093;-51
2023/05/19 03:21:05;;;;;;;117.45;5.75;;;;;;;;;;4956515;28;20058;-50
2023/05/19 03:23:31;;;;;;;132.15;6.47;;;;;;;;;;4959642;28;20117;-54
2023/05/19 03:25:56;;;;;;;226.30;10.75;;;;;;;;;;4955923;28;20085;-51
2023/05/19 03:28:26;;;;;;;114.03;6.37;;;;;;;;;;4958164;28;20045;-54
2023/05/19 03:30:51;;;;;;;217.57;10.18;;;;;;;;;;4956386;28;20315;-52
2023/05/19 03:33:16;;;;;;;107.07;6.00;;;;;;;;;;4956928;28;20162;-53
2023/05/19 03:35:43;;;;;;;83.82;5.35;;;;;;;;;;4956627;28;20512;-50
2023/05/19 03:38:08;;;;;;;143.63;7.30;;;;;;;;;;4958190;28;20026;-52
2023/05/19 03:40:33;;;;;;;116.82;6.30;;;;;;;;;;4957624;28;20045;-51
2023/05/19 03:42:59;;;;;;;229.70;10.93;;;;;;;;;;4955994;28;20093;-53
2023/05/19 03:45:25;;;;;;;125.78;6.63;;;;;;;;;;4956187;28;20011;-50
2023/05/19 03:47:50;;;;;;;216.60;10.25;;;;;;;;;;4955219;28;20448;-54
2023/05/19 03:50:15;;;;;;;119.78;6.05;;;;;;;;;;4957702;28;20026;-54
2023/05/19 03:52:44;;;;;;;111.60;5.93;;;;;;;;;;4958479;28;20031;-53
2023/05/19 03:55:09;;;;;;;95.15;5.82;;;;;;;;;;4955552;28;20720;-54
2023/05/19 03:57:35;;;;;;;140.10;6.88;;;;;;;;;;4957631;28;20880;-50
2023/05/19 04:00:00;;;;;;;237.50;11.18;;;;;;;;;;4957201;28;20414;-53
2023/05/19 04:02:25;;;;;;;110.57;5.87;;;;;;;;;;4956580;28;20026;-52
2023/05/19 04:04:50;;;;;;;218.67;10.70;;;;;;;;;;4955308;28;20254;-52
2023/05/19 04:07:15;;;;;;;86.60;5.60;;;;;;;;;;4957226;28;20337;-53
2023/05/19 04:09:41;;;;;;;136.57;6.47;;;;;;;;;;4956980;28;20378;-51
2023/05/19 04:12:06;;;;;;;125.53;6.65;;;;;;;;;;4954275;28;20337;-53
2023/05/19 04:14:32;;;;;;;112.57;6.43;;;;;;;;;;4956953;28;20488;-52
2023/05/19 04:16:57;;;;;;;258.33;11.83;;;;;;;;;;4955474;28;20074;-54
2023/05/19 04:19:22;;;;;;;118.28;6.32;;;;;;;;;;4957454;28;20373;-53
2023/05/19 04:21:48;;;;;;;141.35;7.30;;;;;;;;;;4956281;28;20051;-54
2023/05/19 04:24:13;;;;;;;112.03;6.03;;;;;;;;;;4956950;28;20101;-53
2023/05/19 04:26:41;;;;;;;98.35;5.65;;;;;;;;;;4957249;28;20738;-53
2023/05/19 04:29:07;;;;;;;136.55;7.00;;;;;;;;;;4955375;28;20019;-54
2023/05/19 04:31:34;;;;;;;117.13;6.53;;;;;;;;;;4957557;28;20118;-54
2023/05/19 04:34:00;;;;;;;233.32;11.23;;;;;;;;;;4955190;28;20555;-53
2023/05/19 04:36:26;;;;;;;154.68;7.82;;;;;;;;;;4955136;28;20500;-53
2023/05/19 04:38:53;;;;;;;179.73;8.68;;;;;;;;;;4955322;28;20037;-53
2023/05/19 04:41:19;;;;;;;137.85;6.75;;;;;;;;;;4956856;28;20038;-55
2023/05/19 04:43:47;;;;;;;133.73;6.63;;;;;;;;;;4958409;28;20750;-53
2023/05/19 04:46:12;;;;;;;118.63;6.07;;;;;;;;;;4956706;28;20121;-52
2023/05/19 04:48:38;;;;;;;147.60;7.28;;;;;;;;;;4956812;28;20142;-51
2023/05/19 04:51:04;;;;;;;227.75;10.73;;;;;;;;;;4953538;28;20031;-51
2023/05/19 04:53:30;;;;;;;125.07;6.40;;;;;;;;;;4955169;28;20183;-51
2023/05/19 04:55:55;;;;;;;218.45;10.73;;;;;;;;;;4954239;28;20031;-52
2023/05/19 04:58:21;;;;;;;128.13;6.72;;;;;;;;;;4956304;28;20038;-52
2023/05/19 05:00:46;;;;;;;137.23;6.95;;;;;;;;;;4956578;28;20042;-52
2023/05/19 05:03:13;;;;;;;106.50;5.77;;;;;;;;;;4955538;28;20303;-51
2023/05/19 05:05:38;;;;;;;117.40;6.28;;;;;;;;;;4955631;28;20259;-50
2023/05/19 05:08:04;;;;;;;252.70;11.45;;;;;;;;;;4953870;28;20030;-50
2023/05/19 05:10:29;;;;;;;103.95;5.97;;;;;;;;;;4956333;28;20468;-51
2023/05/19 05:12:54;;;;;;;224.45;10.70;;;;;;;;;;4953982;28;20030;-52
2023/05/19 05:15:20;;;;;;;145.88;7.20;;;;;;;;;;4953650;28;20038;-52
2023/05/19 05:17:45;;;;;;;164.20;7.78;;;;;;;;;;4955417;28;20031;-52
2023/05/19 05:20:11;;;;;;;127.30;6.85;;;;;;;;;;4951831;28;20018;-55
2023/05/19 05:22:37;;;;;;;138.80;7.38;;;;;;;;;;4956150;28;20018;-53
2023/05/19 05:25:03;;;;;;;157.30;8.40;;;;;;;;;;4954387;28;20026;-51
2023/05/19 05:27:28;;;;;;;156.23;7.20;;;;;;;;;;4954311;28;20039;-52
2023/05/19 05:29:53;;;;;;;213.45;10.70;;;;;;;;;;4955158;28;20018;-51
2023/05/19 05:32:19;;;;;;;149.57;7.63;;;;;;;;;;4955722;28;20046;-53
2023/05/19 05:34:44;;;;;;;143.23;7.47;;;;;;;;;;4955965;28;20372;-53
2023/05/19 05:37:09;;;;;;;98.80;5.88;;;;;;;;;;4954599;28;20042;-54
2023/05/19 05:39:35;;;;;;;118.15;6.43;;;;;;;;;;4955769;28;20029;-53
2023/05/19 05:42:00;;;;;;;231.03;11.27;;;;;;;;;;4955442;28;20448;-50
2023/05/19 05:44:25;;;;;;;112.77;6.17;;;;;;;;;;4956732;28;20262;-54
2023/05/19 05:46:51;;;;;;;132.13;7.20;;;;;;;;;;4954063;28;20273;-52
2023/05/19 05:49:16;;;;;;;119.15;6.68;;;;;;;;;;4956905;28;20022;-52
2023/05/19 05:51:41;;;;;;;112.25;6.03;;;;;;;;;;4957322;28;20182;-53
2023/05/19 05:54:08;;;;;;;172.38;8.38;;;;;;;;;;4955136;28;20714;-52
2023/05/19 05:56:35;;;;;;;93.72;5.85;;;;;;;;;;4956786;28;20097;-53
2023/05/19 05:59:01;;;;;;;192.73;10.02;;;;;;;;;;4955189;28;20027;-54
2023/05/19 06:01:26;;;;;;;155.80;7.97;;;;;;;;;;4956335;28;20049;-53
2023/05/19 06:03:52;;;;;;;125.30;6.22;;;;;;;;;;4954818;28;20109;-52
2023/05/19 06:06:17;;;;;;;122.90;6.80;;;;;;;;;;4958224;28;20157;-53
2023/05/19 06:08:42;;;;;;;124.50;6.82;;;;;;;;;;4959236;28;20705;-51
2023/05/19 06:11:08;;;;;;;170.30;8.73;;;;;;;;;;4958522;28;20031;-50
2023/05/19 06:13:36;;;;;;;150.45;7.57;;;;;;;;;;4960007;28;20317;-53
2023/05/19 06:16:02;;;;;;;220.52;11.23;;;;;;;;;;4956432;28;20035;-54
2023/05/19 06:18:27;;;;;;;128.25;6.60;;;;;;;;;;4960204;28;20026;-54
2023/05/19 06:20:53;;;;;;;136.80;7.30;;;;;;;;;;4957926;28;20031;-53
2023/05/19 06:23:18;;;;;;;131.73;6.93;;;;;;;;;;4958483;28;20030;-53
2023/05/19 06:25:43;;;;;;;133.63;6.90;;;;;;;;;;4958879;28;20070;-53
2023/05/19 06:28:09;;;;;;;198.20;10.53;;;;;;;;;;4958882;28;20356;-53
2023/05/19 06:30:35;;;;;;;116.60;6.22;;;;;;;;;;4959979;28;20035;-54
2023/05/19 06:33:02;;;;;;;209.60;10.00;;;;;;;;;;4958171;28;20048;-51
2023/05/19 06:35:27;;;;;;;108.88;6.25;;;;;;;;;;4958541;28;20019;-54
2023/05/19 06:37:52;;;;;;;152.73;8.10;;;;;;;;;;4959293;28;20033;-51
2023/05/19 06:40:17;;;;;;;157.57;7.97;;;;;;;;;;4957613;28;20026;-54
2023/05/19 06:42:43;;;;;;;87.97;5.53;;;;;;;;;;4958596;28;20089;-53
2023/05/19 06:45:08;;;;;;;211.40;11.20;;;;;;;;;;4956585;28;20269;-54
2023/05/19 06:47:34;;;;;;;126.47;7.05;;;;;;;;;;4959098;28;20174;-51
2023/05/19 06:49:59;;;;;;;232.93;11.13;;;;;;;;;;4955987;28;20409;-53
2023/05/19 06:52:24;;;;;;;156.80;8.27;;;;;;;;;;4956403;28;20043;-53
2023/05/19 06:54:49;;;;;;;110.43;6.55;;;;;;;;;;4958537;28;20118;-54
2023/05/19 06:57:15;;;;;;;127.63;7.28;;;;;;;;;;4955549;28;20045;-54
2023/05/19 06:59:42;;;;;;;133.07;7.10;;;;;;;;;;4958815;28;20093;-54
2023/05/19 07:02:07;;;;;;;209.32;9.55;;;;;;;;;;4954248;28;20641;-55
2023/05/19 07:04:32;;;;;;;135.83;7.53;;;;;;;;;;4957213;28;20606;-55
2023/05/19 07:06:58;;;;;;;174.43;9.85;;;;;;;;;;4956803;28;20266;-53
2023/05/19 07:09:23;;;;;;;102.35;6.13;;;;;;;;;;4957995;28;20023;-54
2023/05/19 07:11:48;;;;;;;140.38;7.68;;;;;;;;;;4957677;28;20370;-54
2023/05/19 07:14:14;;;;;;;226.70;11.20;;;;;;;;;;4939339;28;20030;-54
2023/05/19 07:16:39;;;;;;;105.72;6.00;;;;;;;;;;4956292;28;20867;-54
2023/05/19 07:19:04;;;;;;;264.52;13.20;;;;;;;;;;4955389;28;20305;-55
2023/05/19 07:21:29;;;;;;;129.50;7.13;;;;;;;;;;4957946;28;20636;-55
2023/05/19 07:23:55;;;;;;;138.45;7.40;;;;;;;;;;4957590;28;20042;-52
2023/05/19 07:26:21;;;;;;;124.43;6.43;;;;;;;;;;4956632;28;20070;-53
2023/05/19 07:28:46;;;;;;;105.95;6.05;;;;;;;;;;4958209;28;20278;-53
2023/05/19 07:31:11;;;;;;;189.23;9.17;;;;;;;;;;4955704;28;20070;-53
2023/05/19 07:33:37;;;;;;;129.90;7.47;;;;;;;;;;4941007;28;20298;-53
2023/05/19 07:36:03;;;;;;;214.30;10.80;;;;;;;;;;4954788;28;20269;-53
2023/05/19 07:38:29;;;;;;;148.43;7.38;;;;;;;;;;4957221;28;20664;-55
2023/05/19 07:40:54;;;;;;;105.53;6.18;;;;;;;;;;4957643;28;20472;-52
2023/05/19 07:43:19;;;;;;;129.33;6.97;;;;;;;;;;4955959;28;20034;-54
2023/05/19 07:45:44;;;;;;;106.73;6.13;;;;;;;;;;4957137;28;20246;-56
2023/05/19 07:48:10;;;;;;;189.60;10.07;;;;;;;;;;4955619;28;20266;-55
2023/05/19 07:50:35;;;;;;;120.93;6.90;;;;;;;;;;4956857;28;20666;-54
2023/05/19 07:53:01;;;;;;;181.80;9.10;;;;;;;;;;4956624;28;20035;-51
2023/05/19 07:55:26;;;;;;;104.32;6.05;;;;;;;;;;4956851;28;20066;-54
2023/05/19 07:57:51;;;;;;;175.38;8.48;;;;;;;;;;4957216;28;20022;-56
2023/05/19 08:00:17;;;;;;;178.53;9.27;;;;;;;;;;4955293;28;20043;-51
2023/05/19 08:02:42;;;;;;;109.05;6.07;;;;;;;;;;4958949;28;20259;-52
2023/05/19 08:05:08;;;;;;;223.68;11.07;;;;;;;;;;4953498;28;20018;-51
2023/05/19 08:07:33;;;;;;;121.93;6.43;;;;;;;;;;4955883;28;20047;-55
2023/05/19 08:09:58;;;;;;;122.70;6.57;;;;;;;;;;4955653;28;20019;-53
2023/05/19 08:12:24;;;;;;;219.77;9.83;;;;;;;;;;4931400;28;20488;-53
2023/05/19 08:14:50;;;;;;;162.05;7.80;;;;;;;;;;4954203;28;20346;-53
2023/05/19 08:17:15;;;;;;;199.15;9.43;;;;;;;;;;4952010;28;20079;-54
2023/05/19 08:19:40;;;;;;;165.70;7.90;;;;;;;;;;4953966;28;20034;-54
2023/05/19 08:22:05;;;;;;;238.30;11.50;;;;;;;;;;4951632;28;20077;-52
2023/05/19 08:24:32;;;;;;;164.55;7.97;;;;;;;;;;4952816;28;20278;-54
2023/05/19 08:26:58;;;;;;;149.50;7.40;;;;;;;;;;4954671;28;20125;-53
2023/05/19 08:29:23;;;;;;;181.75;8.50;;;;;;;;;;4952532;28;20040;-54
2023/05/19 08:31:48;;;;;;;207.03;8.90;;;;;;;;;;4953648;28;20372;-53
2023/05/19 08:34:13;;;;;;;229.65;10.50;;;;;;;;;;4952151;28;20412;-54
2023/05/19 08:36:39;;;;;;;171.83;7.67;;;;;;;;;;4952879;28;20046;-51
2023/05/19 08:39:05;;;;;;;246.43;11.02;;;;;;;;;;4952258;28;20637;-52
2023/05/19 08:41:30;;;;;;;171.38;8.07;;;;;;;;;;4953037;28;20401;-52
2023/05/19 08:43:56;;;;;;;203.13;9.23;;;;;;;;;;4951365;28;20073;-55
2023/05/19 08:46:23;;;;;;;181.53;8.13;;;;;;;;;;4950251;28;20496;-53
2023/05/19 08:48:51;;;;;;;168.50;7.88;;;;;;;;;;4952568;28;20789;-53
2023/05/19 08:51:22;;;;;;;293.95;13.50;;;;;;;;;;4951655;28;20023;-54
2023/05/19 08:53:49;;;;;;;191.63;9.00;;;;;;;;;;4955482;28;20022;-52
2023/05/19 08:56:21;;;;;;;256.58;11.77;;;;;;;;;;4952505;28;20031;-52
2023/05/19 08:58:48;;;;;;;127.68;6.57;;;;;;;;;;4953728;28;20051;-52
2023/05/19 09:01:15;;;;;;;213.93;11.32;;;;;;;;;;4951264;28;20346;-54
2023/05/19 09:03:41;;;;;;;128.52;6.85;;;;;;;;;;4953229;28;20401;-52
2023/05/19 09:06:07;;;;;;;221.32;10.40;;;;;;;;;;4951327;28;20543;-55
2023/05/19 09:08:33;;;;;;;347.75;14.77;;;;;;;;;;4949125;28;20030;-51
2023/05/19 09:10:59;;;;;;;139.00;6.82;;;;;;;;;;4951817;28;20034;-51
2023/05/19 09:13:24;;;;;;;124.63;6.65;;;;;;;;;;4951823;28;20026;-53
2023/05/19 09:15:51;;;;;;;117.15;6.57;;;;;;;;;;4951643;28;20034;-52
2023/05/19 09:18:16;;;;;;;204.00;10.57;;;;;;;;;;4952023;28;20022;-52
2023/05/19 09:20:43;;;;;;;119.15;6.03;;;;;;;;;;4953174;28;20034;-52
2023/05/19 09:23:12;;;;;;;194.77;9.05;;;;;;;;;;4952991;28;20531;-54
2023/05/19 09:25:48;;;;;;;106.97;5.80;;;;;;;;;;4953338;28;20050;-59
2023/05/19 09:28:13;;;;;;;288.80;13.07;;;;;;;;;;4952112;28;20023;-55
2023/05/19 09:30:38;;;;;;;179.10;8.52;;;;;;;;;;4954075;28;20045;-55
2023/05/19 09:33:07;;;;;;;175.98;7.80;;;;;;;;;;4954219;28;20523;-54
2023/05/19 09:35:33;;;;;;;175.77;8.02;;;;;;;;;;4952761;28;20035;-54
2023/05/19 09:37:59;;;;;;;191.57;8.80;;;;;;;;;;4953572;28;20031;-53
2023/05/19 09:40:26;;;;;;;199.40;9.02;;;;;;;;;;4951400;28;21728;-56
2023/05/19 09:42:52;;;;;;;180.52;8.50;;;;;;;;;;4958346;28;20027;-56
2023/05/19 09:45:18;;;;;;;246.95;11.55;;;;;;;;;;4955895;28;20025;-55
2023/05/19 09:47:44;;;;;;;170.52;8.35;;;;;;;;;;4956998;28;20030;-56
2023/05/19 09:50:10;;;;;;;196.30;9.87;;;;;;;;;;4955684;28;20026;-54
2023/05/19 09:52:41;;;;;;;152.57;7.60;;;;;;;;;;4956828;28;20297;-57
2023/05/19 09:55:11;;;;;;;72.82;7.20;;;;;;;;;;4954189;28;20026;-54
2023/05/19 09:57:37;;;;;;;226.88;9.25;;;;;;;;;;4955680;28;20112;-56
2023/05/19 10:00:16;;;;;;;258.55;10.15;;;;;;;;;;4956145;28;20023;-57
2023/05/19 10:05:46;;;;;;;19.73;4.18;;;;;;;;;;5051370;27;20408;-53
2023/05/19 10:08:13;;;;;;;33.53;5.93;;;;;;;;;;5020287;28;20072;-57
2023/05/19 10:10:38;;;;;;;19.10;3.78;;;;;;;;;;5021169;28;20030;-60
2023/05/19 10:13:04;;;;;;;23.38;4.13;;;;;;;;;;5021104;28;20033;-56
2023/05/19 10:15:29;;;;;;;21.30;4.18;;;;;;;;;;5016909;28;20085;-55
2023/05/19 10:17:55;;;;;;;27.83;4.78;;;;;;;;;;5020486;28;20515;-56
2023/05/19 10:20:20;;;;;;;257.58;12.05;;;;;;;;;;5019285;28;20025;-57
2023/05/19 10:22:45;;;;;;;12.73;3.30;;;;;;;;;;5017766;28;20112;-57
2023/05/19 10:25:13;;;;;;;18.93;3.97;;;;;;;;;;5017164;28;20434;-60
2023/05/19 10:27:56;;;;;;;11.30;3.42;;;;;;;;;;5016614;28;20314;-56
2023/05/19 10:30:33;;;;;;;13.35;4.43;;;;;;;;;;5017868;28;20017;-55
2023/05/19 10:32:59;;;;;;;8.00;3.13;;;;;;;;;;5022539;28;20024;-55
2023/05/19 10:35:34;;;;;;;11.60;3.97;;;;;;;;;;5013468;28;20038;-52
2023/05/19 10:43:32;;;;;;;7.43;3.28;;;;;;;;;;5225040;23;20057;-54
2023/05/19 10:45:58;;;;;;;8.75;3.53;;;;;;;;;;4936139;28;20766;-56
2023/05/19 10:48:23;;;;;;;13.43;3.90;;;;;;;;;;4977285;28;20031;-55
2023/05/19 10:50:52;;;;;;;7.90;3.08;;;;;;;;;;4981553;28;20201;-56
2023/05/19 10:53:18;;;;;;;12.77;3.95;;;;;;;;;;4979908;28;20031;-55
2023/05/19 10:55:49;;;;;;;10.43;3.45;;;;;;;;;;4980579;28;20030;-55
2023/05/19 10:58:14;;;;;;;12.15;4.15;;;;;;;;;;4977625;28;20041;-56
2023/05/19 11:00:42;;;;;;;8.88;3.05;;;;;;;;;;4992808;28;20038;-56
2023/05/19 11:03:12;;;;;;;9.25;3.30;;;;;;;;;;4983723;28;20913;-57
2023/05/19 11:05:37;;;;;;;9.38;3.45;;;;;;;;;;4978256;28;20534;-53
2023/05/19 11:08:04;;;;;;;11.50;3.53;;;;;;;;;;4979135;28;20580;-54
2023/05/19 11:10:29;;;;;;;12.07;3.70;;;;;;;;;;4978547;28;22768;-55
2023/05/19 11:12:58;;;;;;;10.20;3.40;;;;;;;;;;4980556;28;20030;-52
2023/05/19 11:15:25;;;;;;;13.88;3.95;;;;;;;;;;4974787;28;20030;-54
2023/05/19 11:17:50;;;;;;;11.90;3.70;;;;;;;;;;4968415;28;20030;-56
2023/05/19 11:20:23;;;;;;;14.60;4.13;;;;;;;;;;4964472;28;20484;-56
2023/05/19 11:23:03;;;;;;;9.48;3.30;;;;;;;;;;4966925;28;20025;-53
2023/05/19 11:25:45;;;;;;;11.85;3.85;;;;;;;;;;4963924;28;20046;-54
2023/05/19 11:28:12;;;;;;;9.30;3.00;;;;;;;;;;4963626;28;20034;-53
2023/05/19 11:30:38;;;;;;;9.23;3.25;;;;;;;;;;4965437;28;20049;-54
2023/05/19 11:33:04;;;;;;;13.07;3.47;;;;;;;;;;4963932;28;20122;-52
2023/05/19 11:35:31;;;;;;;13.40;3.78;;;;;;;;;;4964381;28;20046;-55
2023/05/19 11:37:57;;;;;;;17.17;4.20;;;;;;;;;;4965175;28;20041;-54
2023/05/19 11:40:23;;;;;;;26.42;5.35;;;;;;;;;;4962766;28;20035;-52
2023/05/19 11:42:49;;;;;;;9.98;3.30;;;;;;;;;;4963583;28;20042;-56
2023/05/19 11:45:14;;;;;;;13.77;3.83;;;;;;;;;;4962948;28;20037;-56
2023/05/19 11:47:39;;;;;;;11.57;3.37;;;;;;;;;;4965092;28;20453;-53
2023/05/19 11:50:05;;;;;;;13.00;3.80;;;;;;;;;;4964612;28;20258;-52
2023/05/19 11:52:30;;;;;;;24.67;5.72;;;;;;;;;;4965791;28;20820;-51
2023/05/19 11:54:59;;;;;;;17.70;4.18;;;;;;;;;;4964964;28;20366;-57
2023/05/19 11:57:25;;;;;;;26.35;5.55;;;;;;;;;;4963832;28;20030;-56
2023/05/19 11:59:52;;;;;;;16.10;4.10;;;;;;;;;;4964688;28;20029;-53
2023/05/19 12:02:18;;;;;;;21.80;5.05;;;;;;;;;;4962824;28;20062;-53
2023/05/19 12:04:43;;;;;;;15.13;3.55;;;;;;;;;;4964008;28;20244;-56
2023/05/19 12:07:12;;;;;;;13.40;3.45;;;;;;;;;;4964993;28;20342;-55
2023/05/19 12:09:38;;;;;;;15.95;3.72;;;;;;;;;;4965816;28;20018;-57
2023/05/19 12:12:03;;;;;;;15.88;3.67;;;;;;;;;;4963836;28;20391;-55
2023/05/19 12:14:29;;;;;;;27.00;5.63;;;;;;;;;;4964912;28;20027;-56
2023/05/19 12:16:55;;;;;;;16.33;4.00;;;;;;;;;;4962697;28;20205;-55
2023/05/19 12:19:24;;;;;;;23.88;4.90;;;;;;;;;;4963437;28;20049;-54
2023/05/19 12:21:50;;;;;;;16.45;3.97;;;;;;;;;;4963630;28;20038;-56
2023/05/19 12:24:15;;;;;;;25.92;4.68;;;;;;;;;;4963831;28;20041;-56
2023/05/19 12:26:41;;;;;;;16.48;4.18;;;;;;;;;;4965099;28;20027;-59
2023/05/19 12:29:06;;;;;;;19.63;4.05;;;;;;;;;;4964652;28;20055;-57
2023/05/19 12:31:32;;;;;;;35.10;6.68;;;;;;;;;;4962986;28;20080;-54
2023/05/19 12:33:58;;;;;;;24.23;4.85;;;;;;;;;;4964915;28;20546;-57
2023/05/19 12:36:23;;;;;;;34.67;6.20;;;;;;;;;;4962490;28;20031;-56
2023/05/19 12:38:52;;;;;;;18.67;4.40;;;;;;;;;;4964908;28;20342;-56
2023/05/19 12:41:18;;;;;;;25.27;5.05;;;;;;;;;;4961923;28;20070;-55
2023/05/19 12:43:43;;;;;;;29.20;5.68;;;;;;;;;;4963110;28;20031;-55
2023/05/19 12:46:12;;;;;;;19.80;4.28;;;;;;;;;;4963765;28;20038;-56
2023/05/19 12:48:43;;;;;;;16.63;3.78;;;;;;;;;;4962574;28;20022;-53
2023/05/19 12:51:09;;;;;;;15.88;3.78;;;;;;;;;;4964332;28;20259;-55
2023/05/19 12:53:35;;;;;;;31.80;6.15;;;;;;;;;;4963286;28;20098;-56
2023/05/19 12:56:08;;;;;;;24.13;4.85;;;;;;;;;;4964998;28;20033;-54
2023/05/19 12:58:34;;;;;;;24.30;5.32;;;;;;;;;;4963436;28;20030;-53
2023/05/19 13:00:59;;;;;;;17.50;4.00;;;;;;;;;;4962627;28;20027;-57
2023/05/19 13:03:25;;;;;;;21.05;4.53;;;;;;;;;;4964028;28;20014;-58
2023/05/19 13:05:50;;;;;;;14.03;3.37;;;;;;;;;;4963848;28;20645;-56
2023/05/19 13:08:17;;;;;;;16.20;3.88;;;;;;;;;;4964262;28;20264;-55
2023/05/19 13:10:44;;;;;;;15.85;3.63;;;;;;;;;;4963243;28;20027;-54
2023/05/19 13:13:10;;;;;;;16.80;3.75;;;;;;;;;;4964492;28;20048;-57
2023/05/19 13:15:42;;;;;;;34.20;5.82;;;;;;;;;;4961628;28;20043;-57
2023/05/19 13:18:08;;;;;;;13.93;3.42;;;;;;;;;;4964740;28;20796;-55
2023/05/19 13:20:34;;;;;;;27.65;5.18;;;;;;;;;;4961421;28;20051;-53
2023/05/19 13:23:00;;;;;;;12.50;3.33;;;;;;;;;;4963868;28;20110;-55
2023/05/19 13:25:25;;;;;;;18.48;4.38;;;;;;;;;;4961559;28;20044;-52
2023/05/19 13:27:51;;;;;;;23.60;4.63;;;;;;;;;;4965320;28;20018;-54
2023/05/19 13:30:17;;;;;;;12.88;3.20;;;;;;;;;;4964463;28;20050;-53
2023/05/19 13:32:43;;;;;;;16.30;3.83;;;;;;;;;;4962456;28;20021;-56
2023/05/19 13:35:09;;;;;;;21.45;4.18;;;;;;;;;;4961758;28;20050;-56
2023/05/19 13:37:34;;;;;;;29.20;5.47;;;;;;;;;;4962407;28;20031;-56
2023/05/19 13:40:00;;;;;;;18.95;4.20;;;;;;;;;;4964689;28;20370;-57
2023/05/19 13:42:25;;;;;;;30.33;5.65;;;;;;;;;;4961427;28;20085;-56
2023/05/19 13:44:55;;;;;;;20.75;4.45;;;;;;;;;;4962832;28;20024;-55
2023/05/19 13:47:20;;;;;;;26.20;4.82;;;;;;;;;;4959514;28;20089;-57
2023/05/19 13:49:46;;;;;;;18.25;3.85;;;;;;;;;;4963116;28;20295;-55
2023/05/19 13:52:11;;;;;;;19.97;4.07;;;;;;;;;;4962310;28;20030;-56
2023/05/19 13:54:36;;;;;;;35.42;6.25;;;;;;;;;;4961896;28;20272;-55
2023/05/19 13:57:02;;;;;;;18.63;4.17;;;;;;;;;;4963724;28;20034;-55
2023/05/19 13:59:27;;;;;;;33.17;6.05;;;;;;;;;;4960177;28;20031;-54
2023/05/19 14:01:52;;;;;;;19.63;4.30;;;;;;;;;;4962207;28;20031;-55
2023/05/19 14:04:18;;;;;;;17.57;4.03;;;;;;;;;;4963589;28;20842;-55
2023/05/19 14:06:44;;;;;;;22.70;5.13;;;;;;;;;;4960324;28;20695;-55
2023/05/19 14:09:09;;;;;;;20.88;4.18;;;;;;;;;;4963648;28;20148;-56
2023/05/19 14:11:34;;;;;;;30.15;5.60;;;;;;;;;;4961568;28;20164;-56
2023/05/19 14:13:59;;;;;;;28.02;5.43;;;;;;;;;;4963159;28;20031;-56
2023/05/19 14:16:27;;;;;;;32.60;5.57;;;;;;;;;;4963810;28;20046;-56
2023/05/19 14:18:52;;;;;;;21.35;4.45;;;;;;;;;;4964240;28;20120;-57
2023/05/19 14:21:17;;;;;;;19.00;4.13;;;;;;;;;;4964451;28;20034;-54
2023/05/19 14:23:43;;;;;;;24.33;4.60;;;;;;;;;;4961536;28;20345;-56